Time;durP1;ratioP1;P1;durP2;ratioP2;P2;SDS_P1;SDS_P2;PMS_P1;PMS_P2;Temp;Humidity;BMP_temperature;BMP_pressure;BME280_temperature;BME280_humidity;BME280_pressure;Samples;Min_cycle;Max_cycle;Signal;HPM_P1;HPM_P2
2021/11/23 00:01:29;;;;;;;25.10;18.30;;;;;;;7.42;57.81;100629.78;117802;1182;21841;-65
2021/11/23 00:03:57;;;;;;;24.80;17.00;;;;;;;7.41;57.86;100629.78;117306;1185;23448;-64
2021/11/23 00:06:25;;;;;;;25.40;17.60;;;;;;;7.42;58.08;100631.18;117362;1176;21894;-50
2021/11/23 00:08:54;;;;;;;26.40;17.50;;;;;;;7.43;57.93;100628.22;117338;1179;23448;-65
2021/11/23 00:11:24;;;;;;;25.80;18.00;;;;;;;7.41;58.10;100632.05;117346;1185;23912;-65
2021/11/23 00:13:52;;;;;;;25.10;17.90;;;;;;;7.39;58.01;100636.23;117240;1185;23478;-65
2021/11/23 00:16:38;;;;;;;25.50;17.20;;;;;;;7.38;58.08;100632.04;117249;1185;24159;-65
2021/11/23 00:19:07;;;;;;;24.00;17.40;;;;;;;7.38;58.08;100630.10;117387;1185;22247;-51
2021/11/23 00:21:35;;;;;;;31.40;18.10;;;;;;;7.38;58.18;100629.24;117380;1176;21864;-55
2021/11/23 00:24:03;;;;;;;28.00;17.60;;;;;;;7.39;58.29;100628.38;117349;1182;23577;-50
2021/11/23 00:26:32;;;;;;;28.50;17.60;;;;;;;7.38;57.90;100631.69;117368;1183;23478;-51
2021/11/23 00:29:00;;;;;;;27.20;18.30;;;;;;;7.36;58.05;100633.77;117394;1185;23487;-50
2021/11/23 00:31:28;;;;;;;25.60;17.20;;;;;;;7.35;57.87;100636.55;117400;1183;21854;-50
2021/11/23 00:33:57;;;;;;;31.80;18.30;;;;;;;7.34;58.01;100636.55;117257;1185;24204;-50
2021/11/23 00:36:25;;;;;;;28.80;17.00;;;;;;;7.34;58.06;100641.97;117395;1182;23537;-51
2021/11/23 00:38:54;;;;;;;25.80;16.70;;;;;;;7.34;57.94;100642.48;117406;1185;23474;-64
2021/11/23 00:41:22;;;;;;;25.20;17.00;;;;;;;7.34;58.15;100647.54;117412;1186;21848;-50
2021/11/23 00:43:51;;;;;;;25.60;18.00;;;;;;;7.33;58.12;100647.36;117435;1183;23448;-50
2021/11/23 00:46:19;;;;;;;28.10;19.00;;;;;;;7.32;58.04;100649.63;117305;1185;21850;-65
2021/11/23 00:48:51;;;;;;;27.40;18.80;;;;;;;7.32;58.23;100645.44;117316;1185;22661;-65
2021/11/23 00:51:20;;;;;;;27.10;17.80;;;;;;;7.33;58.16;100649.45;117384;1186;21854;-50
2021/11/23 00:53:48;;;;;;;26.70;18.80;;;;;;;7.31;58.01;100650.48;117399;1186;24145;-65
2021/11/23 00:56:17;;;;;;;27.40;18.30;;;;;;;7.30;58.02;100651.36;117326;1183;22369;-65
2021/11/23 00:58:46;;;;;;;28.30;19.10;;;;;;;7.31;58.04;100653.28;117563;1182;24181;-53
2021/11/23 01:01:14;;;;;;;28.80;19.10;;;;;;;7.32;58.14;100650.85;117454;1183;21914;-50
2021/11/23 01:03:42;;;;;;;27.00;18.90;;;;;;;7.30;58.07;100652.24;117429;1183;22921;-65
2021/11/23 01:06:10;;;;;;;31.00;19.40;;;;;;;7.26;58.12;100653.98;117456;1186;21848;-65
2021/11/23 01:08:39;;;;;;;30.20;18.90;;;;;;;7.25;57.99;100651.52;117509;1185;22867;-65
2021/11/23 01:11:09;;;;;;;29.90;19.80;;;;;;;7.23;58.12;100653.61;117448;1179;23557;-51
2021/11/23 01:13:38;;;;;;;29.80;19.70;;;;;;;7.23;58.10;100657.27;117404;1185;22835;-65
2021/11/23 01:16:07;;;;;;;30.10;20.30;;;;;;;7.22;58.21;100660.41;117382;1185;21959;-51
2021/11/23 01:18:37;;;;;;;27.30;19.40;;;;;;;7.22;58.21;100663.73;117342;1185;22951;-51
2021/11/23 01:21:09;;;;;;;31.70;19.70;;;;;;;7.22;58.10;100665.64;117408;1185;21956;-64
2021/11/23 01:23:37;;;;;;;29.60;19.50;;;;;;;7.23;58.08;100663.73;117436;1185;21855;-65
2021/11/23 01:26:07;;;;;;;27.10;18.80;;;;;;;7.24;58.29;100669.84;117378;1185;22619;-65
2021/11/23 01:28:36;;;;;;;28.00;20.00;;;;;;;7.24;58.14;100672.81;117394;1179;22711;-65
2021/11/23 01:31:06;;;;;;;28.10;19.10;;;;;;;7.23;57.93;100672.98;117274;1182;23470;-64
2021/11/23 01:33:34;;;;;;;27.20;19.70;;;;;;;7.21;58.25;100672.61;117390;1186;21845;-65
2021/11/23 01:36:02;;;;;;;28.80;18.50;;;;;;;7.21;58.18;100671.92;117452;1185;23656;-50
2021/11/23 01:38:35;;;;;;;26.50;18.60;;;;;;;7.20;57.99;100673.13;117419;1183;21904;-50
2021/11/23 01:41:03;;;;;;;28.20;19.10;;;;;;;7.20;58.21;100669.81;117422;1183;23559;-65
2021/11/23 01:43:32;;;;;;;27.60;18.70;;;;;;;7.20;58.23;100669.11;117356;1185;23551;-50
2021/11/23 01:46:01;;;;;;;27.20;19.10;;;;;;;7.21;58.46;100674.70;117188;1183;23713;-64
2021/11/23 01:48:29;;;;;;;36.00;23.70;;;;;;;7.20;58.36;100678.89;117295;1185;21888;-65
2021/11/23 01:50:58;;;;;;;36.90;25.70;;;;;;;7.20;58.37;100683.60;117299;1182;23649;-51
2021/11/23 01:53:27;;;;;;;40.20;25.00;;;;;;;7.18;58.28;100680.63;117240;1185;21862;-65
2021/11/23 01:55:55;;;;;;;31.10;21.20;;;;;;;7.14;58.37;100683.20;117308;1183;23478;-50
2021/11/23 01:58:24;;;;;;;29.60;20.20;;;;;;;7.13;57.95;100684.94;117339;1184;24165;-65
2021/11/23 02:00:52;;;;;;;31.90;21.50;;;;;;;7.09;58.11;100684.58;117311;1183;22911;-65
2021/11/23 02:03:22;;;;;;;29.10;20.10;;;;;;;7.06;58.26;100685.43;117202;1182;21937;-52
2021/11/23 02:05:50;;;;;;;31.30;20.80;;;;;;;7.06;58.17;100688.05;117360;1186;22645;-50
2021/11/23 02:08:19;;;;;;;32.90;21.00;;;;;;;7.07;58.15;100689.95;117374;1186;23715;-65
2021/11/23 02:10:48;;;;;;;32.60;21.80;;;;;;;7.09;58.25;100693.30;117498;1180;23008;-65
2021/11/23 02:13:16;;;;;;;31.20;19.70;;;;;;;7.11;58.11;100693.13;117276;1183;23475;-50
2021/11/23 02:15:45;;;;;;;28.80;19.60;;;;;;;7.10;58.09;100695.58;117464;1180;21854;-62
2021/11/23 02:18:21;;;;;;;29.70;19.70;;;;;;;7.09;58.19;100691.73;117390;1179;23487;-50
2021/11/23 02:20:50;;;;;;;31.30;20.50;;;;;;;7.06;58.04;100690.66;117341;1182;21862;-65
2021/11/23 02:23:19;;;;;;;32.20;21.90;;;;;;;7.03;57.96;100692.74;117461;1182;21864;-51
2021/11/23 02:25:48;;;;;;;82.40;49.50;;;;;;;7.03;58.30;100695.36;117477;1184;21851;-50
2021/11/23 02:28:16;;;;;;;107.50;58.40;;;;;;;7.04;58.25;100703.05;117341;1186;22313;-50
2021/11/23 02:30:47;;;;;;;66.30;39.60;;;;;;;7.03;58.16;100703.38;117568;1182;23671;-51
2021/11/23 02:33:17;;;;;;;57.20;34.90;;;;;;;7.03;58.07;100700.60;117310;1183;23457;-50
2021/11/23 02:35:46;;;;;;;57.80;32.10;;;;;;;7.04;58.04;100697.98;117365;1185;22645;-50
2021/11/23 02:38:16;;;;;;;44.00;28.80;;;;;;;7.04;58.40;100694.15;117304;1186;22967;-50
2021/11/23 02:40:44;;;;;;;40.50;26.50;;;;;;;7.05;58.36;100692.75;117368;1182;23506;-54
2021/11/23 02:43:14;;;;;;;39.30;24.30;;;;;;;7.08;58.27;100692.42;117317;1186;21875;-65
2021/11/23 02:45:43;;;;;;;34.40;23.40;;;;;;;7.13;58.24;100699.61;117358;1183;22965;-65
2021/11/23 02:48:13;;;;;;;35.60;21.30;;;;;;;7.16;58.31;100696.84;117391;1182;21857;-50
2021/11/23 02:50:46;;;;;;;32.20;20.40;;;;;;;7.21;58.36;100695.48;117365;1183;22645;-51
2021/11/23 02:53:15;;;;;;;30.20;20.00;;;;;;;7.24;58.42;100689.39;117476;1183;23497;-65
2021/11/23 02:55:44;;;;;;;34.20;21.70;;;;;;;7.27;58.35;100685.75;117437;1184;23503;-65
2021/11/23 02:58:12;;;;;;;29.30;20.60;;;;;;;7.32;58.30;100687.16;117392;1179;24172;-51
2021/11/23 03:00:40;;;;;;;35.10;21.00;;;;;;;7.38;58.21;100686.50;117487;1177;23475;-51
2021/11/23 03:03:09;;;;;;;33.60;22.70;;;;;;;7.42;58.17;100684.78;117508;1186;21888;-64
2021/11/23 03:05:40;;;;;;;29.50;20.30;;;;;;;7.44;58.47;100689.33;117482;1180;22957;-51
2021/11/23 03:08:08;;;;;;;32.80;22.20;;;;;;;7.48;58.48;100693.38;117451;1185;22450;-65
2021/11/23 03:10:37;;;;;;;29.10;19.10;;;;;;;7.51;58.16;100696.88;117433;1183;23553;-64
2021/11/23 03:13:06;;;;;;;27.80;20.40;;;;;;;7.53;58.38;100694.27;117362;1186;22641;-50
2021/11/23 03:15:41;;;;;;;28.20;19.70;;;;;;;7.56;58.47;100699.88;117336;1182;23502;-51
2021/11/23 03:18:10;;;;;;;29.20;19.90;;;;;;;7.57;58.35;100708.61;117364;1185;23474;-65
2021/11/23 03:20:39;;;;;;;29.00;20.00;;;;;;;7.60;58.34;100711.59;117229;1185;23448;-65
2021/11/23 03:23:07;;;;;;;29.50;18.90;;;;;;;7.68;58.08;100714.25;117329;1182;22716;-50
2021/11/23 03:25:36;;;;;;;28.60;18.20;;;;;;;7.70;58.18;100712.19;117372;1182;23553;-51
2021/11/23 03:28:05;;;;;;;27.00;19.20;;;;;;;7.67;58.32;100718.45;117504;1182;23541;-51
2021/11/23 03:30:35;;;;;;;27.50;19.30;;;;;;;7.65;58.56;100722.11;117476;1186;24321;-50
2021/11/23 03:33:05;;;;;;;28.40;20.40;;;;;;;7.66;58.46;100723.52;117333;1182;23448;-65
2021/11/23 03:35:35;;;;;;;26.30;18.70;;;;;;;7.66;58.35;100725.77;117455;1179;21863;-65
2021/11/23 03:38:05;;;;;;;25.90;18.00;;;;;;;7.67;58.24;100732.95;117252;1184;21875;-50
2021/11/23 03:40:34;;;;;;;29.30;19.10;;;;;;;7.68;58.38;100735.05;117223;1182;21864;-66
2021/11/23 03:43:02;;;;;;;28.10;19.70;;;;;;;7.70;58.36;100734.70;117358;1176;23910;-50
2021/11/23 03:45:31;;;;;;;26.30;18.20;;;;;;;7.71;58.38;100732.79;117164;1183;23894;-50
2021/11/23 03:48:01;;;;;;;25.90;17.70;;;;;;;7.71;58.43;100733.30;117432;1184;23472;-65
2021/11/23 03:50:31;;;;;;;27.40;17.30;;;;;;;7.71;58.23;100735.77;117407;1179;22743;-50
2021/11/23 03:53:00;;;;;;;27.50;18.60;;;;;;;7.71;58.41;100734.20;117339;1186;24164;-50
2021/11/23 03:55:32;;;;;;;26.80;18.20;;;;;;;7.73;58.61;100731.58;117374;1186;23553;-66
2021/11/23 03:58:01;;;;;;;26.60;17.90;;;;;;;7.75;58.44;100730.01;117368;1183;23451;-67
2021/11/23 04:00:31;;;;;;;;;;;;;;;7.77;58.13;100733.34;117206;1185;21843;-67
2021/11/23 04:02:59;;;;;;;25.80;16.20;;;;;;;7.78;58.41;100734.39;117456;1182;21872;-51
2021/11/23 04:05:29;;;;;;;26.40;18.10;;;;;;;7.78;58.32;100736.83;117379;1185;24169;-50
2021/11/23 04:07:58;;;;;;;28.80;18.80;;;;;;;7.77;58.57;100741.55;117474;1179;23471;-67
2021/11/23 04:10:27;;;;;;;26.50;18.10;;;;;;;7.77;58.24;100745.73;117339;1186;23011;-51
2021/11/23 04:12:56;;;;;;;30.40;19.40;;;;;;;7.77;58.51;100746.27;117468;1186;21855;-51
2021/11/23 04:15:24;;;;;;;32.30;20.60;;;;;;;7.77;58.52;100747.48;117336;1182;22767;-50
2021/11/23 04:17:52;;;;;;;35.50;23.40;;;;;;;7.77;58.24;100747.65;117349;1182;23452;-50
2021/11/23 04:20:21;;;;;;;29.70;19.70;;;;;;;7.77;58.54;100749.23;117450;1185;21868;-52
2021/11/23 04:22:51;;;;;;;26.80;18.00;;;;;;;7.77;58.40;100747.66;117312;1185;23484;-52
2021/11/23 04:25:20;;;;;;;25.80;16.60;;;;;;;7.76;58.41;100753.42;117431;1183;22799;-68
2021/11/23 04:27:49;;;;;;;26.80;18.10;;;;;;;7.78;58.42;100752.73;117411;1182;22534;-68
2021/11/23 04:30:17;;;;;;;25.30;17.30;;;;;;;7.79;58.31;100754.32;117213;1182;21910;-68
2021/11/23 04:32:45;;;;;;;24.10;16.60;;;;;;;7.80;58.53;100758.33;117362;1185;21875;-51
2021/11/23 04:35:14;;;;;;;28.60;15.70;;;;;;;7.79;58.38;100761.83;117357;1182;21856;-68
2021/11/23 04:37:42;;;;;;;27.00;16.20;;;;;;;7.79;58.53;100764.09;117309;1186;22876;-50
2021/11/23 04:40:13;;;;;;;22.50;15.40;;;;;;;7.80;58.41;100772.48;117324;1182;21854;-68
2021/11/23 04:42:41;;;;;;;20.80;15.50;;;;;;;7.84;58.33;100774.25;117352;1182;21886;-68
2021/11/23 04:45:11;;;;;;;23.00;14.70;;;;;;;7.83;58.52;100776.17;117324;1182;21854;-67
2021/11/23 04:47:40;;;;;;;25.70;15.40;;;;;;;7.84;58.58;100774.08;117526;1183;24079;-67
2021/11/23 04:50:09;;;;;;;23.30;14.60;;;;;;;7.85;58.26;100771.46;117265;1186;21852;-67
2021/11/23 04:52:38;;;;;;;23.30;14.80;;;;;;;7.87;58.41;100766.07;117381;1186;23451;-58
2021/11/23 04:55:08;;;;;;;27.70;15.10;;;;;;;7.89;58.43;100767.64;117385;1186;22857;-51
2021/11/23 04:57:37;;;;;;;25.70;15.50;;;;;;;7.93;58.59;100763.99;117381;1183;21867;-50
2021/11/23 05:00:07;;;;;;;26.90;14.70;;;;;;;7.97;58.60;100764.86;117305;1182;21852;-67
2021/11/23 05:02:40;;;;;;;26.60;13.30;;;;;;;8.00;58.48;100767.69;117353;1186;23564;-50
2021/11/23 05:05:08;;;;;;;25.60;14.80;;;;;;;8.03;58.67;100768.92;117603;1182;21851;-66
2021/11/23 05:07:37;;;;;;;26.50;13.70;;;;;;;8.06;58.52;100763.52;118581;1184;23613;-50
2021/11/23 05:10:06;;;;;;;25.70;13.60;;;;;;;8.07;58.55;100767.90;117374;1185;22931;-50
2021/11/23 05:12:37;;;;;;;18.80;13.10;;;;;;;8.09;58.49;100768.42;117208;1186;22142;-67
2021/11/23 05:15:06;;;;;;;24.40;13.70;;;;;;;8.10;58.68;100770.01;117307;1183;22937;-49
2021/11/23 05:17:37;;;;;;;25.60;13.70;;;;;;;8.10;58.54;100773.16;117463;1184;24371;-50
2021/11/23 05:20:06;;;;;;;22.50;12.70;;;;;;;8.10;58.44;100775.96;117345;1182;21904;-50
2021/11/23 05:22:37;;;;;;;23.30;13.20;;;;;;;8.11;58.42;100781.90;117456;1176;23942;-67
2021/11/23 05:25:06;;;;;;;21.70;12.20;;;;;;;8.11;58.52;100781.73;117480;1182;22651;-50
2021/11/23 05:27:34;;;;;;;18.50;12.70;;;;;;;8.11;58.62;100791.86;117418;1185;21858;-67
2021/11/23 05:30:04;;;;;;;18.00;12.30;;;;;;;8.10;58.47;100796.41;117359;1176;23472;-50
2021/11/23 05:32:32;;;;;;;18.20;12.20;;;;;;;8.07;58.50;100800.77;117381;1183;22091;-50
2021/11/23 05:35:01;;;;;;;17.30;11.90;;;;;;;8.05;58.39;100804.60;117472;1183;23451;-51
2021/11/23 05:37:29;;;;;;;21.40;12.00;;;;;;;8.04;58.34;100807.21;117471;1183;21880;-67
2021/11/23 05:39:57;;;;;;;17.40;11.30;;;;;;;8.03;58.50;100810.16;117345;1183;22646;-67
2021/11/23 05:42:26;;;;;;;21.70;11.40;;;;;;;8.04;58.53;100811.92;117491;1183;23475;-51
2021/11/23 05:44:55;;;;;;;17.90;12.50;;;;;;;8.07;58.44;100810.71;117372;1185;22029;-50
2021/11/23 05:47:24;;;;;;;19.00;12.20;;;;;;;8.08;58.49;100811.07;117277;1185;21875;-66
2021/11/23 05:49:53;;;;;;;23.60;11.20;;;;;;;8.11;58.60;100811.79;117371;1180;22995;-50
2021/11/23 05:52:22;;;;;;;15.90;12.00;;;;;;;8.15;58.46;100814.08;117415;1186;22166;-66
2021/11/23 05:54:50;;;;;;;17.70;11.40;;;;;;;8.18;58.69;100818.98;117331;1185;24357;-49
2021/11/23 05:57:18;;;;;;;15.40;10.80;;;;;;;8.20;58.51;100821.61;117316;1182;23584;-67
2021/11/23 05:59:47;;;;;;;15.00;10.70;;;;;;;8.22;58.60;100825.46;117325;1177;22935;-67
2021/11/23 06:02:16;;;;;;;15.20;10.70;;;;;;;8.23;58.65;100829.33;117335;1185;22501;-50
2021/11/23 06:04:44;;;;;;;14.50;10.30;;;;;;;8.26;58.56;100828.98;117384;1182;21872;-50
2021/11/23 06:07:13;;;;;;;13.50;9.80;;;;;;;8.28;58.64;100833.71;117476;1185;23458;-66
2021/11/23 06:09:41;;;;;;;13.70;9.80;;;;;;;8.32;58.64;100840.90;117344;1182;23480;-66
2021/11/23 06:12:10;;;;;;;16.20;10.00;;;;;;;8.35;58.73;100843.20;117335;1185;21958;-54
2021/11/23 06:14:39;;;;;;;13.00;9.80;;;;;;;8.40;58.54;100847.41;117309;1185;21856;-67
2021/11/23 06:17:10;;;;;;;15.00;10.30;;;;;;;8.45;58.68;100852.32;117343;1183;23497;-68
2021/11/23 06:19:38;;;;;;;16.70;9.60;;;;;;;8.48;58.76;100855.33;117355;1182;22931;-50
2021/11/23 06:22:07;;;;;;;12.10;8.80;;;;;;;8.50;58.66;100856.73;118690;1186;21846;-51
2021/11/23 06:24:37;;;;;;;11.90;9.00;;;;;;;8.51;58.73;100864.27;117387;1185;21857;-61
2021/11/23 06:27:05;;;;;;;10.20;8.50;;;;;;;8.52;58.66;100863.05;117185;1185;21853;-67
2021/11/23 06:29:34;;;;;;;14.90;9.00;;;;;;;8.51;58.59;100862.00;117316;1185;23504;-50
2021/11/23 06:32:03;;;;;;;11.70;8.50;;;;;;;8.52;58.62;100862.00;117360;1182;22630;-50
2021/11/23 06:34:33;;;;;;;14.60;8.20;;;;;;;8.54;58.82;100857.46;117136;1186;21882;-51
2021/11/23 06:37:02;;;;;;;13.50;8.80;;;;;;;8.56;58.75;100858.35;117296;1186;23490;-52
2021/11/23 06:39:30;;;;;;;12.70;8.90;;;;;;;8.58;58.66;100861.51;117293;1182;22651;-51
2021/11/23 06:41:59;;;;;;;19.30;9.60;;;;;;;8.60;58.80;100862.57;117212;1182;23452;-51
2021/11/23 06:44:27;;;;;;;14.30;8.60;;;;;;;8.61;58.82;100863.95;117441;1176;24196;-51
2021/11/23 06:46:56;;;;;;;15.10;9.50;;;;;;;8.64;58.57;100865.02;117375;1185;24155;-68
2021/11/23 06:49:25;;;;;;;14.50;8.80;;;;;;;8.67;58.83;100867.30;117392;1185;23456;-69
2021/11/23 06:51:53;;;;;;;13.80;8.40;;;;;;;8.69;58.61;100871.16;117320;1175;21855;-51
2021/11/23 06:54:22;;;;;;;14.40;8.60;;;;;;;8.70;58.63;100874.14;117321;1183;22648;-67
2021/11/23 06:56:54;;;;;;;13.40;8.50;;;;;;;8.72;58.66;100870.64;117341;1182;24274;-52
2021/11/23 06:59:23;;;;;;;14.70;8.50;;;;;;;8.74;58.66;100862.95;117322;1182;22648;-67
2021/11/23 07:01:52;;;;;;;13.60;8.70;;;;;;;8.78;58.61;100864.37;117366;1182;23478;-50
2021/11/23 07:04:21;;;;;;;13.10;8.20;;;;;;;8.83;58.80;100861.23;117388;1183;21866;-51
2021/11/23 07:06:50;;;;;;;14.10;8.30;;;;;;;8.89;58.88;100857.04;117365;1181;22957;-52
2021/11/23 07:09:18;;;;;;;13.80;8.70;;;;;;;8.96;58.93;100858.98;117366;1185;23014;-52
2021/11/23 07:11:47;;;;;;;12.20;8.00;;;;;;;9.04;58.74;100858.30;117339;1176;23474;-66
2021/11/23 07:14:16;;;;;;;19.90;8.70;;;;;;;9.09;58.71;100859.35;117323;1185;22623;-66
2021/11/23 07:16:45;;;;;;;10.10;7.40;;;;;;;9.11;58.87;100861.80;117352;1185;22027;-67
2021/11/23 07:19:14;;;;;;;13.70;8.10;;;;;;;9.12;58.78;100856.73;117487;1184;21937;-67
2021/11/23 07:21:43;;;;;;;10.80;7.20;;;;;;;9.13;58.82;100858.84;117385;1183;23449;-50
2021/11/23 07:24:11;;;;;;;12.90;8.90;;;;;;;9.15;58.83;100863.04;117418;1186;22858;-51
2021/11/23 07:26:40;;;;;;;16.60;9.00;;;;;;;9.17;58.65;100861.30;117677;1184;23561;-51
2021/11/23 07:29:08;;;;;;;15.20;9.30;;;;;;;9.17;58.66;100863.05;117326;1185;23446;-53
2021/11/23 07:31:41;;;;;;;16.80;10.30;;;;;;;9.17;58.68;100863.92;117871;1185;22326;-54
2021/11/23 07:34:10;;;;;;;11.70;8.00;;;;;;;9.18;58.66;100874.42;117478;1179;23599;-53
2021/11/23 07:36:40;;;;;;;11.10;7.70;;;;;;;9.18;58.66;100879.33;117360;1185;21858;-53
2021/11/23 07:39:14;;;;;;;10.70;6.30;;;;;;;9.19;58.67;100884.41;117396;1185;22941;-53
2021/11/23 07:41:43;;;;;;;10.40;7.30;;;;;;;9.18;58.63;100887.55;117393;1176;23553;-53
2021/11/23 07:44:11;;;;;;;9.30;6.60;;;;;;;9.15;58.65;100886.34;117425;1185;22407;-52
2021/11/23 07:46:39;;;;;;;10.30;6.40;;;;;;;9.14;58.69;100889.48;117109;1186;23610;-66
2021/11/23 07:49:09;;;;;;;21.40;19.10;;;;;;;9.13;58.60;100894.38;117341;1183;22796;-51
2021/11/23 07:51:37;;;;;;;18.30;15.40;;;;;;;9.14;58.69;100894.91;117383;1186;22935;-65
2021/11/23 07:54:06;;;;;;;12.20;10.80;;;;;;;9.13;58.61;100897.35;117332;1186;24223;-53
2021/11/23 07:56:35;;;;;;;9.80;7.80;;;;;;;9.13;58.72;100904.19;117442;1183;21895;-65
2021/11/23 07:59:12;;;;;;;8.50;5.90;;;;;;;9.12;58.77;100911.54;117326;1185;23582;-53
2021/11/23 08:01:42;;;;;;;9.90;5.70;;;;;;;9.11;58.54;100913.98;117314;1182;23618;-53
2021/11/23 08:04:11;;;;;;;7.50;5.50;;;;;;;9.10;58.64;100914.51;117417;1182;23556;-53
2021/11/23 08:06:40;;;;;;;8.00;6.00;;;;;;;9.10;58.61;100919.75;117326;1183;23577;-65
2021/11/23 08:09:09;;;;;;;16.40;13.60;;;;;;;9.10;58.61;100923.79;117201;1183;21850;-52
2021/11/23 08:11:47;;;;;;;9.10;7.20;;;;;;;9.10;58.58;100920.11;117350;1182;23820;-64
2021/11/23 08:14:15;;;;;;;10.50;9.10;;;;;;;9.04;58.64;100923.95;117337;1182;24144;-52
2021/11/23 08:16:44;;;;;;;7.60;6.20;;;;;;;9.03;58.84;100925.70;117280;1183;21871;-52
2021/11/23 08:19:32;;;;;;;8.40;6.00;;;;;;;9.02;58.75;100929.38;117382;1185;21858;-65
2021/11/23 08:22:00;;;;;;;7.40;5.20;;;;;;;9.00;58.80;100930.06;117380;1182;22951;-52
2021/11/23 08:24:29;;;;;;;6.80;5.20;;;;;;;9.01;58.74;100926.39;117350;1182;22930;-65
2021/11/23 08:26:59;;;;;;;7.20;5.40;;;;;;;9.01;58.52;100932.17;117304;1185;23454;-51
2021/11/23 08:29:27;;;;;;;7.30;4.70;;;;;;;9.01;58.75;100935.33;117280;1182;23458;-66
2021/11/23 08:31:56;;;;;;;5.50;4.30;;;;;;;9.01;58.63;100933.92;117356;1183;23580;-65
2021/11/23 08:34:27;;;;;;;7.70;4.50;;;;;;;9.01;58.52;100939.17;117376;1180;22955;-52
2021/11/23 08:36:56;;;;;;;7.10;4.20;;;;;;;9.00;58.54;100939.86;117316;1185;21899;-66
2021/11/23 08:39:24;;;;;;;7.30;4.70;;;;;;;8.99;58.57;100940.04;117316;1176;21857;-52
2021/11/23 08:41:52;;;;;;;6.40;4.80;;;;;;;8.99;58.61;100942.84;117355;1184;22523;-66
2021/11/23 08:44:23;;;;;;;7.30;4.70;;;;;;;8.98;58.41;100944.77;117261;1180;21891;-52
2021/11/23 08:46:51;;;;;;;6.20;4.20;;;;;;;8.96;58.55;100948.42;117375;1184;21861;-52
2021/11/23 08:49:19;;;;;;;7.90;4.00;;;;;;;8.94;58.64;100945.27;117259;1182;23451;-67
2021/11/23 08:51:48;;;;;;;7.50;4.60;;;;;;;8.93;58.59;100948.06;117332;1182;23478;-66
2021/11/23 08:54:17;;;;;;;6.90;5.10;;;;;;;8.92;58.63;100950.86;117328;1179;23449;-67
2021/11/23 08:56:55;;;;;;;5.30;4.00;;;;;;;8.88;58.54;100951.02;117389;1182;24164;-67
2021/11/23 08:59:24;;;;;;;6.10;3.80;;;;;;;8.85;58.50;100952.23;117324;1180;21996;-67
2021/11/23 09:01:53;;;;;;;6.50;3.90;;;;;;;8.85;58.59;100953.11;117380;1183;22914;-51
2021/11/23 09:04:21;;;;;;;6.20;3.90;;;;;;;8.85;58.51;100959.58;117320;1185;21860;-53
2021/11/23 09:06:52;;;;;;;8.20;4.40;;;;;;;8.86;58.71;100962.20;117391;1182;21889;-66
2021/11/23 09:09:27;;;;;;;5.40;3.90;;;;;;;8.85;58.54;100962.73;117423;1184;21859;-67
2021/11/23 09:11:57;;;;;;;8.30;4.00;;;;;;;8.84;58.61;100964.48;117337;1182;23113;-66
2021/11/23 09:14:25;;;;;;;6.50;3.60;;;;;;;8.85;58.53;100963.95;117329;1185;22173;-52
2021/11/23 09:16:54;;;;;;;7.90;3.70;;;;;;;8.86;58.63;100963.44;117331;1185;24167;-52
2021/11/23 09:19:22;;;;;;;5.20;4.00;;;;;;;8.90;58.79;100970.10;117382;1185;21848;-66
2021/11/23 09:21:50;;;;;;;5.60;3.60;;;;;;;8.92;58.66;100975.36;117399;1185;21868;-66
2021/11/23 09:24:23;;;;;;;7.60;4.00;;;;;;;8.90;58.71;100970.80;117464;1183;21898;-67
2021/11/23 09:26:51;;;;;;;5.00;3.40;;;;;;;8.89;58.56;100973.27;117364;1185;21868;-53
2021/11/23 09:29:20;;;;;;;5.20;3.50;;;;;;;8.91;58.76;100973.27;117456;1176;22666;-53
2021/11/23 09:31:49;;;;;;;6.30;4.80;;;;;;;8.94;58.66;100977.12;117425;1182;23470;-66
2021/11/23 09:34:20;;;;;;;5.20;3.60;;;;;;;8.95;58.57;100975.38;117465;1183;21849;-52
2021/11/23 09:36:54;;;;;;;5.80;4.20;;;;;;;8.93;58.32;100973.62;117442;1182;21876;-53
2021/11/23 09:39:22;;;;;;;5.40;3.70;;;;;;;8.86;58.37;100976.23;117341;1185;21979;-65
2021/11/23 09:41:53;;;;;;;5.10;3.50;;;;;;;8.81;58.18;100977.60;117355;1182;23554;-66
2021/11/23 09:44:23;;;;;;;5.20;3.50;;;;;;;8.76;58.30;100979.15;117309;1185;22623;-52
2021/11/23 09:46:51;;;;;;;5.60;3.80;;;;;;;8.71;58.35;100984.02;117412;1186;23451;-52
2021/11/23 09:49:20;;;;;;;6.20;3.80;;;;;;;8.69;58.24;100989.44;117398;1180;22856;-52
2021/11/23 09:51:48;;;;;;;7.90;3.60;;;;;;;8.66;58.40;100994.13;117347;1186;21864;-52
2021/11/23 09:54:16;;;;;;;5.50;3.40;;;;;;;8.62;58.42;100996.39;117239;1182;21855;-52
2021/11/23 09:56:46;;;;;;;5.10;3.00;;;;;;;8.59;58.24;100996.20;117337;1185;22648;-53
2021/11/23 09:59:15;;;;;;;4.80;3.00;;;;;;;8.53;58.52;100999.33;117399;1183;21890;-59
2021/11/23 10:01:51;;;;;;;4.10;2.70;;;;;;;8.47;58.13;100998.39;117403;1182;23146;-66
2021/11/23 10:04:21;;;;;;;4.40;3.00;;;;;;;8.42;58.14;100998.85;117439;1182;22935;-52
2021/11/23 10:07:00;;;;;;;7.30;5.00;;;;;;;8.38;58.29;100997.96;117395;1184;22929;-64
2021/11/23 10:09:38;;;;;;;6.50;3.90;;;;;;;8.32;58.13;101000.02;117464;1182;22033;-65
2021/11/23 10:12:22;;;;;;;5.80;3.40;;;;;;;8.29;58.24;101004.20;117467;1185;21870;-65
2021/11/23 10:15:23;;;;;;;4.30;3.00;;;;;;;8.26;58.27;101005.23;117450;1182;23478;-65
2021/11/23 10:17:54;;;;;;;5.60;3.80;;;;;;;8.23;58.23;101008.34;117289;1184;24168;-52
2021/11/23 10:20:34;;;;;;;6.30;3.30;;;;;;;8.20;58.37;101008.15;117471;1183;23480;-52
2021/11/23 10:23:09;;;;;;;;;;;;;;;8.18;58.25;101008.83;117329;1182;23462;-51
2021/11/23 10:25:39;;;;;;;5.40;3.80;;;;;;;8.18;58.46;101003.95;117296;1182;22725;-53
2021/11/23 10:28:07;;;;;;;5.60;3.60;;;;;;;8.19;58.24;101002.20;117422;1185;21964;-64
2021/11/23 10:30:40;;;;;;;4.60;3.20;;;;;;;8.19;58.38;101001.69;117404;1182;22535;-62
2021/11/23 10:33:09;;;;;;;5.20;4.10;;;;;;;8.19;58.31;101002.02;117404;1185;21844;-63
2021/11/23 10:35:42;;;;;;;6.90;4.90;;;;;;;8.18;58.36;101000.80;117348;1185;23474;-64
2021/11/23 10:38:15;;;;;;;7.00;4.20;;;;;;;8.12;58.60;101002.33;117320;1182;21887;-65
2021/11/23 10:40:45;;;;;;;6.80;4.60;;;;;;;8.13;58.62;101001.80;117478;1182;21857;-65
2021/11/23 10:43:15;;;;;;;5.70;4.20;;;;;;;8.18;58.73;101000.45;117370;1179;22926;-65
2021/11/23 10:45:46;;;;;;;6.70;4.10;;;;;;;8.23;58.70;100998.38;117376;1183;21864;-65
2021/11/23 10:48:15;;;;;;;6.70;4.90;;;;;;;8.26;58.75;101002.25;117383;1186;21888;-64
2021/11/23 10:50:56;;;;;;;7.80;5.20;;;;;;;8.28;58.79;101001.92;117303;1185;23611;-52
2021/11/23 10:53:24;;;;;;;6.30;4.70;;;;;;;8.25;58.73;101002.92;117321;1185;21891;-51
2021/11/23 10:55:53;;;;;;;6.20;4.90;;;;;;;8.23;58.70;100998.55;117393;1186;21957;-65
2021/11/23 10:58:21;;;;;;;6.60;5.50;;;;;;;8.20;58.88;101003.60;117318;1183;23622;-51
2021/11/23 11:00:50;;;;;;;5.60;4.30;;;;;;;8.20;58.72;101007.98;117414;1183;24172;-50
2021/11/23 11:03:19;;;;;;;8.80;4.30;;;;;;;8.17;58.82;101008.83;117326;1185;24164;-51
2021/11/23 11:05:48;;;;;;;7.80;4.50;;;;;;;8.16;58.96;101004.12;117368;1185;23645;-66
2021/11/23 11:08:16;;;;;;;5.70;3.80;;;;;;;8.17;58.90;101005.68;117290;1179;23061;-65
2021/11/23 11:10:49;;;;;;;5.40;3.90;;;;;;;8.18;58.88;101000.61;117131;1186;23490;-51
2021/11/23 11:13:20;;;;;;;5.20;3.90;;;;;;;8.18;58.86;101003.77;117483;1185;24156;-65
2021/11/23 11:15:51;;;;;;;5.00;4.20;;;;;;;8.18;58.86;101005.52;117369;1183;23452;-66
2021/11/23 11:18:22;;;;;;;5.20;3.90;;;;;;;8.17;58.85;101007.60;117359;1185;21849;-52
2021/11/23 11:21:00;;;;;;;8.30;4.60;;;;;;;8.16;58.71;101006.03;117335;1185;21971;-51
2021/11/23 11:23:35;;;;;;;9.90;6.00;;;;;;;8.12;58.88;101003.73;117354;1185;22590;-51
2021/11/23 11:28:48;;;;;;;10.00;6.20;;;;;;;8.11;58.88;101007.91;117277;1183;21869;-66